createdAt,value
2019-05-11T00:01:39.509Z,99.99
2019-05-11T00:23:52.403Z,99.99
2019-05-11T00:26:52.408Z,99.99
2019-05-11T00:27:52.443Z,99.99
2019-05-11T00:29:52.498Z,99.99
2019-05-11T00:30:54.146Z,99.99
2019-05-11T00:39:28.607Z,99.99
2019-05-11T00:40:28.633Z,99.99
2019-05-11T00:42:28.694Z,99.99
2019-05-11T00:46:29.019Z,99.99
2019-05-11T01:04:40.380Z,99.99
2019-05-11T01:30:29.561Z,99.99
2019-05-11T01:31:29.587Z,99.99
2019-05-11T01:35:29.713Z,99.99
2019-05-11T03:46:31.637Z,99.99
2019-05-11T03:47:30.950Z,99.99
2019-05-11T03:48:30.987Z,99.99
2019-05-11T03:51:31.487Z,99.99
2019-05-11T03:52:31.317Z,99.99
2019-05-11T03:56:31.240Z,99.99
2019-05-11T03:58:31.514Z,99.99
2019-05-11T05:24:22.306Z,99.99
2019-05-11T05:25:22.313Z,99.99
2019-05-11T05:26:22.344Z,99.99
2019-05-11T05:27:22.402Z,99.99
2019-05-11T05:28:22.430Z,99.99
2019-05-11T05:29:22.464Z,99.99
2019-05-11T05:30:23.896Z,99.99
2019-05-11T05:31:22.504Z,99.99
2019-05-11T05:32:22.537Z,99.99
2019-05-11T05:33:22.568Z,99.99
2019-05-11T05:34:22.600Z,99.99
2019-05-11T05:35:22.632Z,99.99
2019-05-11T05:36:22.666Z,99.99
2019-05-11T05:37:22.699Z,99.99
2019-05-11T05:38:22.730Z,99.99
2019-05-11T05:39:22.762Z,99.99
2019-05-11T05:40:22.795Z,99.99
2019-05-11T05:41:22.827Z,99.99
2019-05-11T05:42:22.858Z,99.99
2019-05-11T05:43:27.520Z,99.99
2019-05-11T05:44:22.924Z,99.99
2019-05-11T05:45:22.956Z,99.99
2019-05-11T05:46:22.988Z,99.99
2019-05-11T05:47:23.042Z,99.99
2019-05-11T05:48:23.055Z,99.99
2019-05-11T05:49:23.085Z,99.99
2019-05-11T05:50:23.117Z,99.99
2019-05-11T05:51:23.150Z,99.99
2019-05-11T05:52:23.183Z,99.99
2019-05-11T05:53:23.215Z,99.99
2019-05-11T05:54:23.246Z,99.99
2019-05-11T05:55:23.279Z,99.99
2019-05-11T05:56:23.311Z,99.99
2019-05-11T05:57:23.346Z,99.99
2019-05-11T05:58:23.379Z,99.99
2019-05-11T05:59:23.416Z,99.99
2019-05-11T06:00:23.443Z,99.99
2019-05-11T06:01:23.474Z,99.99
2019-05-11T06:02:23.524Z,99.99
2019-05-11T06:03:23.539Z,99.99
2019-05-11T06:04:23.572Z,99.99
2019-05-11T06:05:23.830Z,99.99
2019-05-11T06:06:23.666Z,99.99
2019-05-11T06:07:23.691Z,99.99
2019-05-11T06:08:24.234Z,99.99
2019-05-11T06:09:24.745Z,99.99
2019-05-11T06:10:23.768Z,99.99
2019-05-11T06:11:23.804Z,99.99
2019-05-11T06:12:23.835Z,99.99
2019-05-11T06:13:24.202Z,99.99
2019-05-11T06:14:23.898Z,99.99
2019-05-11T06:15:23.933Z,99.99
2019-05-11T06:16:23.969Z,99.99
2019-05-11T06:17:23.999Z,99.99
2019-05-11T06:18:24.030Z,99.99
2019-05-11T06:19:24.088Z,99.99
2019-05-11T06:20:24.097Z,99.99
2019-05-11T06:21:24.128Z,99.99
2019-05-11T06:22:24.175Z,99.99
2019-05-11T06:23:24.202Z,99.99
2019-05-11T06:24:24.633Z,99.99
2019-05-11T06:25:24.486Z,99.99
2019-05-11T06:26:24.526Z,99.99
2019-05-11T06:27:28.836Z,99.99
2019-05-11T06:28:24.360Z,99.99
2019-05-11T06:29:24.394Z,99.99
2019-05-11T06:30:24.428Z,99.99
2019-05-11T06:31:24.470Z,99.99
2019-05-11T06:32:24.504Z,99.99
2019-05-11T06:33:24.571Z,99.99
2019-05-11T06:34:24.561Z,99.99
2019-05-11T06:35:24.597Z,99.99
2019-05-11T06:36:24.629Z,99.99
2019-05-11T06:37:24.661Z,99.99
2019-05-11T06:38:24.701Z,99.99
2019-05-11T06:39:24.734Z,99.99
2019-05-11T06:40:28.403Z,99.99
2019-05-11T06:41:24.798Z,99.99
2019-05-11T06:42:24.834Z,99.99
2019-05-11T06:43:24.866Z,99.99
2019-05-11T06:44:24.900Z,99.99
2019-05-11T06:45:24.934Z,99.99
2019-05-11T06:46:24.968Z,99.99
2019-05-11T06:47:25.002Z,99.99
2019-05-11T06:48:25.037Z,99.99
2019-05-11T06:49:25.070Z,99.99
2019-05-11T06:50:25.103Z,99.99
2019-05-11T06:51:25.137Z,99.99
2019-05-11T06:52:25.173Z,99.99
2019-05-11T06:53:25.208Z,99.99
2019-05-11T06:54:25.240Z,99.99
2019-05-11T06:55:25.274Z,99.99
2019-05-11T06:56:25.309Z,99.99
2019-05-11T06:57:25.341Z,99.99
2019-05-11T06:58:25.378Z,99.99
2019-05-11T06:59:25.409Z,99.99
2019-05-11T07:00:25.445Z,99.99
2019-05-11T07:01:25.477Z,99.99
2019-05-11T07:02:25.511Z,99.99
2019-05-11T07:03:25.545Z,99.99
2019-05-11T07:04:25.581Z,99.99
2019-05-11T07:05:25.616Z,99.99
2019-05-11T07:06:29.792Z,99.99
2019-05-11T07:07:25.683Z,99.99
2019-05-11T07:08:25.718Z,98.82
2019-05-11T07:09:25.753Z,99.15
2019-05-11T07:10:25.788Z,99.99
2019-05-11T07:11:25.822Z,99.99
2019-05-11T07:12:27.718Z,99.44
2019-05-11T07:13:25.889Z,99.58
2019-05-11T07:14:25.925Z,99.58
2019-05-11T07:15:25.964Z,99.30
2019-05-11T07:16:25.995Z,99.20
2019-05-11T07:17:26.027Z,99.99
2019-05-11T07:18:26.070Z,99.96
2019-05-11T07:19:26.096Z,99.87
2019-05-11T07:20:26.131Z,99.68
2019-05-11T07:21:26.165Z,99.68
2019-05-11T07:22:26.200Z,99.29
2019-05-11T07:23:26.235Z,99.01
2019-05-11T07:24:26.271Z,99.29
2019-05-11T07:25:26.312Z,99.29
2019-05-11T07:26:26.337Z,99.49
2019-05-11T07:27:26.372Z,99.15
2019-05-11T07:28:26.406Z,99.99
2019-05-11T07:29:26.441Z,99.99
2019-05-11T07:30:26.474Z,99.99
2019-05-11T07:31:26.508Z,99.99
2019-05-11T07:32:29.185Z,99.99
2019-05-11T07:33:28.584Z,99.99
2019-05-11T07:34:27.800Z,99.29
2019-05-11T07:35:27.955Z,98.91
2019-05-11T07:37:28.003Z,98.53
2019-05-11T07:38:27.813Z,98.14
2019-05-11T07:39:27.980Z,96.70
2019-05-11T07:40:27.910Z,98.33
2019-05-11T07:41:28.188Z,99.15
2019-05-11T07:42:28.650Z,97.47
2019-05-11T07:43:28.782Z,98.38
2019-05-11T07:44:35.918Z,98.86
2019-05-11T07:45:28.301Z,98.38
2019-05-11T07:46:28.824Z,98.00
2019-05-11T07:47:27.802Z,98.72
2019-05-11T07:48:27.965Z,99.05
2019-05-11T07:49:29.051Z,98.62
2019-05-11T07:50:28.407Z,97.95
2019-05-11T07:51:28.693Z,99.24
2019-05-11T07:52:28.747Z,99.53
2019-05-11T07:53:27.893Z,99.10
2019-05-11T07:54:28.097Z,98.96
2019-05-11T07:55:28.146Z,98.82
2019-05-11T07:56:28.538Z,99.99
2019-05-11T07:57:28.374Z,99.58
2019-05-11T07:58:28.488Z,97.86
2019-05-11T07:59:28.985Z,98.14
2019-05-11T08:00:28.146Z,98.38
2019-05-11T08:01:28.334Z,98.00
2019-05-11T08:02:28.517Z,96.70
2019-05-11T08:03:28.369Z,94.88
2019-05-11T08:04:28.740Z,93.34
2019-05-11T08:05:28.398Z,94.16
2019-05-11T08:06:28.570Z,94.35
2019-05-11T08:07:28.548Z,92.72
2019-05-11T08:08:28.380Z,92.19
2019-05-11T08:09:28.055Z,93.44
2019-05-11T08:10:28.267Z,91.61
2019-05-11T08:11:31.195Z,89.88
2019-05-11T08:12:28.600Z,90.26
2019-05-11T08:13:28.342Z,89.30
2019-05-11T08:14:28.741Z,89.21
2019-05-11T08:15:28.493Z,89.69
2019-05-11T08:16:28.848Z,88.97
2019-05-11T08:17:28.696Z,88.97
2019-05-11T08:18:28.407Z,89.36
2019-05-11T08:19:28.434Z,88.30
2019-05-11T08:20:28.245Z,88.73
2019-05-11T08:21:28.596Z,88.63
2019-05-11T08:22:28.586Z,88.15
2019-05-11T08:23:28.648Z,87.38
2019-05-11T08:24:28.586Z,84.92
2019-05-11T08:25:28.854Z,84.73
2019-05-11T08:26:28.554Z,85.40
2019-05-11T08:27:28.677Z,85.11
2019-05-11T08:28:28.833Z,85.60
2019-05-11T08:29:28.528Z,84.83
2019-05-11T08:30:28.542Z,82.52
2019-05-11T08:31:28.577Z,81.75
2019-05-11T08:32:28.889Z,78.96
2019-05-11T08:33:28.670Z,79.73
2019-05-11T08:34:28.767Z,78.28
2019-05-11T08:35:31.347Z,82.42
2019-05-11T08:36:29.172Z,79.82
2019-05-11T08:37:31.414Z,76.94
2019-05-11T08:38:28.826Z,76.94
2019-05-11T08:39:29.035Z,76.65
2019-05-11T08:40:29.078Z,75.69
2019-05-11T08:41:28.935Z,76.94
2019-05-11T08:42:29.135Z,76.94
2019-05-11T08:43:29.006Z,76.17
2019-05-11T08:44:29.064Z,77.04
2019-05-11T08:45:29.079Z,76.88
2019-05-11T08:46:29.114Z,74.71
2019-05-11T08:47:29.155Z,75.67
2019-05-11T08:48:29.186Z,74.03
2019-05-11T08:49:29.228Z,75.23
2019-05-11T08:50:29.259Z,73.39
2019-05-11T08:51:29.300Z,74.36
2019-05-11T08:52:29.333Z,75.42
2019-05-11T08:53:29.368Z,74.30
2019-05-11T08:54:29.404Z,74.24
2019-05-11T08:55:29.442Z,72.41
2019-05-11T08:56:29.500Z,71.06
2019-05-11T08:57:29.536Z,71.54
2019-05-11T08:58:29.552Z,71.34
2019-05-11T08:59:29.588Z,70.86
2019-05-11T09:00:29.625Z,69.90
2019-05-11T09:01:31.322Z,71.44
2019-05-11T09:02:29.699Z,69.55
2019-05-11T09:03:29.740Z,68.77
2019-05-11T09:04:29.774Z,67.91
2019-05-11T09:05:29.812Z,69.80
2019-05-11T09:06:29.850Z,68.74
2019-05-11T09:07:29.886Z,70.38
2019-05-11T09:08:29.924Z,70.28
2019-05-11T09:09:29.960Z,70.38
2019-05-11T09:10:29.998Z,70.28
2019-05-11T09:11:30.063Z,70.96
2019-05-11T09:13:30.112Z,69.77
2019-05-11T09:14:30.150Z,69.83
2019-05-11T09:15:36.949Z,69.89
2019-05-11T09:16:30.226Z,70.50
2019-05-11T09:17:30.262Z,70.56
2019-05-11T09:18:30.299Z,69.22
2019-05-11T09:19:30.340Z,68.93
2019-05-11T09:20:30.398Z,69.73
2019-05-11T09:21:30.413Z,70.70
2019-05-11T09:22:30.450Z,70.02
2019-05-11T09:24:30.525Z,69.70
2019-05-11T09:25:30.890Z,70.02
2019-05-11T09:26:31.206Z,69.83
2019-05-11T09:27:30.636Z,69.64
2019-05-11T09:28:30.699Z,67.55
2019-05-11T09:29:30.939Z,66.11
2019-05-11T09:30:30.749Z,66.14
2019-05-11T09:31:30.785Z,65.91
2019-05-11T09:32:31.859Z,67.26
2019-05-11T09:33:30.882Z,68.16
2019-05-11T09:34:31.128Z,68.16
2019-05-11T09:35:30.937Z,66.85
2019-05-11T09:36:31.005Z,65.95
2019-05-11T09:37:31.010Z,65.37
2019-05-11T09:38:31.048Z,66.17
2019-05-11T09:39:31.086Z,64.63
2019-05-11T09:40:31.124Z,64.24
2019-05-11T09:41:31.368Z,64.92
2019-05-11T09:42:31.200Z,66.66
2019-05-11T09:43:31.237Z,65.56
2019-05-11T09:44:31.275Z,63.98
2019-05-11T09:45:44.664Z,64.86
2019-05-11T09:46:31.352Z,66.59
2019-05-11T09:47:31.390Z,67.84
2019-05-11T09:48:31.428Z,65.59
2019-05-11T09:49:44.002Z,65.91
2019-05-11T09:50:31.504Z,66.72
2019-05-11T09:51:31.541Z,66.72
2019-05-11T09:52:32.532Z,65.88
2019-05-11T09:53:31.617Z,65.56
2019-05-11T09:54:31.655Z,66.75
2019-05-11T09:55:31.698Z,67.52
2019-05-11T09:56:31.730Z,66.07
2019-05-11T09:57:31.767Z,65.88
2019-05-11T09:58:31.807Z,67.46
2019-05-11T09:59:31.845Z,65.98
2019-05-11T10:00:31.906Z,68.32
2019-05-11T10:01:31.921Z,67.26
2019-05-11T10:02:31.962Z,66.43
2019-05-11T10:03:31.994Z,65.81
2019-05-11T10:04:32.033Z,66.17
2019-05-11T10:05:32.091Z,67.07
2019-05-11T10:06:32.129Z,63.63
2019-05-11T10:07:32.596Z,62.89
2019-05-11T10:08:32.184Z,62.40
2019-05-11T10:09:34.884Z,63.73
2019-05-11T10:10:32.260Z,63.11
2019-05-11T10:11:32.298Z,61.18
2019-05-11T10:12:32.338Z,61.86
2019-05-11T10:13:32.376Z,61.80
2019-05-11T10:14:32.414Z,61.47
2019-05-11T10:15:32.459Z,62.31
2019-05-11T10:16:32.494Z,62.37
2019-05-11T10:17:32.532Z,61.18
2019-05-11T10:18:32.571Z,59.80
2019-05-11T10:19:32.612Z,59.66
2019-05-11T10:20:36.285Z,59.33
2019-05-11T10:21:32.690Z,57.00
2019-05-11T10:22:32.731Z,54.36
2019-05-11T10:23:32.773Z,53.78
2019-05-11T10:24:32.814Z,51.97
2019-05-11T10:25:32.856Z,52.25
2019-05-11T10:26:33.908Z,51.87
2019-05-11T10:27:32.940Z,51.84
2019-05-11T10:28:32.985Z,53.91
2019-05-11T10:29:34.004Z,56.95
2019-05-11T10:30:33.294Z,57.99
2019-05-11T10:32:33.156Z,59.63
2019-05-11T10:33:33.199Z,58.98
2019-05-11T10:34:33.241Z,59.50
2019-05-11T10:35:33.283Z,59.66
2019-05-11T10:36:33.326Z,56.10
2019-05-11T10:37:33.370Z,54.36
2019-05-11T10:38:33.436Z,52.93
2019-05-11T10:39:33.456Z,54.14
2019-05-11T10:40:33.501Z,51.84
2019-05-11T10:41:33.543Z,52.42
2019-05-11T10:42:33.587Z,52.88
2019-05-11T10:43:33.632Z,51.84
2019-05-11T10:44:33.677Z,51.28
2019-05-11T10:45:33.722Z,49.24
2019-05-11T10:46:33.765Z,48.57
2019-05-11T10:47:33.816Z,48.78
2019-05-11T10:48:33.855Z,48.13
2019-05-11T10:49:34.507Z,47.78
2019-05-11T10:50:33.947Z,49.27
2019-05-11T10:51:33.996Z,49.58
2019-05-11T10:52:34.039Z,50.19
2019-05-11T10:53:34.086Z,50.60
2019-05-11T10:54:34.134Z,47.74
2019-05-11T10:55:34.178Z,49.95
2019-05-11T10:56:34.225Z,50.38
2019-05-11T10:57:34.274Z,49.66
2019-05-11T10:58:34.317Z,49.07
2019-05-11T10:59:34.381Z,48.44
2019-05-11T11:00:34.412Z,48.15
2019-05-11T11:01:34.459Z,48.00
2019-05-11T11:02:34.507Z,48.00
2019-05-11T11:03:34.555Z,46.91
2019-05-11T11:04:34.601Z,46.20
2019-05-11T11:05:34.649Z,47.81
2019-05-11T11:06:34.747Z,47.44
2019-05-11T11:07:55.365Z,47.05
2019-05-11T11:08:34.792Z,47.69
2019-05-11T11:09:34.839Z,47.05
2019-05-11T11:10:34.888Z,47.32
2019-05-11T11:11:34.935Z,49.34
2019-05-11T11:12:34.982Z,48.52
2019-05-11T11:13:35.029Z,50.24
2019-05-11T11:14:37.534Z,51.42
2019-05-11T11:15:35.124Z,53.04
2019-05-11T11:16:39.643Z,53.23
2019-05-11T11:18:35.261Z,52.58
2019-05-11T11:19:35.305Z,51.52
2019-05-11T11:20:35.351Z,52.17
2019-05-11T11:21:35.395Z,52.56
2019-05-11T11:22:40.176Z,52.63
2019-05-11T11:23:35.482Z,53.89
2019-05-11T11:24:37.467Z,54.16
2019-05-11T11:25:37.498Z,52.42
2019-05-11T11:26:37.794Z,52.68
2019-05-11T11:27:37.943Z,52.97
2019-05-11T11:28:35.699Z,52.29
2019-05-11T11:29:35.745Z,54.66
2019-05-11T11:30:37.893Z,56.79
2019-05-11T11:31:37.957Z,57.56
2019-05-11T11:32:38.134Z,57.95
2019-05-11T11:33:38.084Z,57.99
2019-05-11T11:34:38.253Z,59.83
2019-05-11T11:35:38.335Z,60.69
2019-05-11T11:36:37.581Z,61.27
2019-05-11T11:37:38.467Z,61.15
2019-05-11T11:38:37.582Z,61.80
2019-05-11T11:39:38.673Z,62.63
2019-05-11T11:40:38.524Z,63.31
2019-05-11T11:41:37.916Z,63.60
2019-05-11T11:42:37.759Z,63.60
2019-05-11T11:43:37.741Z,64.95
2019-05-11T11:44:38.001Z,64.56
2019-05-11T11:45:38.112Z,62.54
2019-05-11T11:46:50.368Z,62.92
2019-05-11T11:47:38.389Z,63.50
2019-05-11T11:48:38.396Z,60.34
2019-05-11T11:49:38.334Z,57.23
2019-05-11T11:50:37.787Z,56.11
2019-05-11T11:51:37.854Z,56.51
2019-05-11T11:52:38.297Z,56.56
2019-05-11T11:53:38.337Z,52.95
2019-05-11T11:54:38.666Z,51.45
2019-05-11T11:55:38.857Z,51.35
2019-05-11T11:56:38.026Z,51.04
2019-05-11T11:57:38.047Z,50.09
2019-05-11T11:58:38.161Z,49.49
2019-05-11T11:59:38.586Z,50.29
2019-05-11T12:00:39.089Z,50.16
2019-05-11T12:01:38.492Z,48.25
2019-05-11T12:03:37.996Z,46.40
2019-05-11T12:04:38.812Z,46.30
2019-05-11T12:05:38.600Z,46.51
2019-05-11T12:07:38.614Z,45.74
2019-05-11T12:08:38.948Z,46.40
2019-05-11T12:09:37.891Z,46.30
2019-05-11T12:10:38.055Z,46.32
2019-05-11T12:11:38.115Z,45.47
2019-05-11T12:12:38.644Z,45.86
2019-05-11T12:13:38.417Z,45.86
2019-05-11T12:14:38.495Z,45.67
2019-05-11T12:15:38.707Z,45.06
2019-05-11T12:16:38.844Z,45.76
2019-05-11T12:17:37.801Z,45.68
2019-05-11T12:18:38.166Z,44.27
2019-05-11T12:19:38.293Z,43.43
2019-05-11T12:20:38.909Z,44.42
2019-05-11T12:21:38.130Z,45.69
2019-05-11T12:22:38.611Z,46.28
2019-05-11T12:23:38.384Z,48.54
2019-05-11T12:24:38.129Z,47.98
2019-05-11T12:25:40.481Z,48.37
2019-05-11T12:26:38.820Z,51.37
2019-05-11T12:27:38.609Z,49.95
2019-05-11T12:28:38.420Z,49.17
2019-05-11T12:29:38.663Z,47.52
2019-05-11T12:30:38.416Z,45.81
2019-05-11T12:31:38.461Z,45.10
2019-05-11T12:32:38.509Z,46.37
2019-05-11T12:33:38.714Z,45.78
2019-05-11T12:34:38.603Z,44.62
2019-05-11T12:35:38.652Z,43.59
2019-05-11T12:36:38.899Z,45.87
2019-05-11T12:37:39.353Z,48.08
2019-05-11T12:38:38.794Z,51.18
2019-05-11T12:39:38.847Z,52.87
2019-05-11T12:40:39.040Z,54.46
2019-05-11T12:41:38.934Z,56.56
2019-05-11T12:42:38.981Z,57.81
2019-05-11T12:44:39.071Z,59.03
2019-05-11T12:45:39.116Z,58.94
2019-05-11T12:46:39.623Z,58.22
2019-05-11T12:47:39.203Z,58.03
2019-05-11T12:48:39.247Z,55.99
2019-05-11T12:49:39.289Z,54.85
2019-05-11T12:50:39.334Z,53.97
2019-05-11T12:51:39.375Z,51.21
2019-05-11T12:52:39.418Z,50.62
2019-05-11T12:53:39.464Z,51.45
2019-05-11T12:54:39.505Z,51.67
2019-05-11T12:55:39.547Z,50.82
2019-05-11T12:56:39.590Z,47.52
2019-05-11T12:57:39.633Z,47.13
2019-05-11T12:58:39.710Z,46.77
2019-05-11T12:59:39.722Z,46.83
2019-05-11T13:00:41.284Z,45.57
2019-05-11T13:01:39.808Z,44.81
2019-05-11T13:02:39.862Z,45.00
2019-05-11T13:03:39.897Z,44.17
2019-05-11T13:04:39.942Z,42.16
2019-05-11T13:05:40.009Z,43.33
2019-05-11T13:06:40.033Z,42.45
2019-05-11T13:07:40.080Z,43.40
2019-05-11T13:08:40.126Z,45.54
2019-05-11T13:09:40.171Z,45.53
2019-05-11T13:10:40.223Z,48.83
2019-05-11T13:11:40.263Z,52.27
2019-05-11T13:12:40.310Z,53.65
2019-05-11T13:13:40.455Z,51.86
2019-05-11T13:14:40.405Z,49.66
2019-05-11T13:15:40.448Z,46.77
2019-05-11T13:16:40.503Z,46.86
2019-05-11T13:17:41.141Z,50.38
2019-05-11T13:18:40.583Z,53.47
2019-05-11T13:19:40.631Z,57.06
2019-05-11T13:20:40.696Z,58.10
2019-05-11T13:21:40.721Z,60.00
2019-05-11T13:22:40.763Z,60.90
2019-05-11T13:23:40.807Z,61.68
2019-05-11T13:24:41.287Z,63.54
2019-05-11T13:25:40.894Z,65.72
2019-05-11T13:26:40.936Z,68.29
2019-05-11T13:27:40.978Z,72.48
2019-05-11T13:28:41.021Z,79.46
2019-05-11T13:29:41.062Z,83.98
2019-05-11T13:30:41.103Z,89.08
2019-05-11T13:31:41.143Z,92.30
2019-05-11T13:32:41.183Z,94.26
2019-05-11T13:33:41.224Z,96.75
2019-05-11T13:34:41.262Z,98.19
2019-05-11T13:35:41.302Z,99.34
2019-05-11T13:36:41.340Z,99.43
2019-05-11T13:37:41.377Z,99.05
2019-05-11T13:38:41.415Z,96.22
2019-05-11T13:39:41.455Z,95.84
2019-05-11T13:40:41.493Z,96.37
2019-05-11T13:41:41.527Z,96.70
2019-05-11T13:42:41.565Z,95.21
2019-05-11T13:43:41.603Z,93.25
2019-05-11T13:44:41.641Z,89.50
2019-05-11T13:45:41.676Z,87.37
2019-05-11T13:46:41.722Z,83.85
2019-05-11T13:47:51.605Z,81.55
2019-05-11T13:48:41.789Z,78.19
2019-05-11T13:49:42.431Z,73.97
2019-05-11T13:50:41.864Z,72.66
2019-05-11T13:51:41.901Z,70.89
2019-05-11T13:52:41.941Z,69.34
2019-05-11T13:53:41.977Z,67.24
2019-05-11T13:54:42.017Z,62.32
2019-05-11T13:55:42.057Z,62.35
2019-05-11T13:56:42.096Z,61.87
2019-05-11T13:57:42.136Z,63.00
2019-05-11T13:58:42.176Z,65.24
2019-05-11T13:59:42.219Z,64.72
2019-05-11T14:00:42.259Z,67.88
2019-05-11T14:01:42.305Z,69.75
2019-05-11T14:02:42.351Z,67.17
2019-05-11T14:03:42.389Z,69.13
2019-05-11T14:04:42.427Z,71.94
2019-05-11T14:05:42.465Z,72.32
2019-05-11T14:06:42.505Z,72.36
2019-05-11T14:07:42.547Z,73.65
2019-05-11T14:08:42.588Z,73.68
2019-05-11T14:09:42.635Z,73.04
2019-05-11T14:10:42.671Z,70.36
2019-05-11T14:11:44.993Z,72.48
2019-05-11T14:12:42.752Z,72.77
2019-05-11T14:13:42.792Z,70.03
2019-05-11T14:14:42.833Z,74.41
2019-05-11T14:15:42.875Z,77.29
2019-05-11T14:16:42.915Z,81.57
2019-05-11T14:17:42.957Z,80.51
2019-05-11T14:18:42.996Z,80.42
2019-05-11T14:19:43.036Z,82.15
2019-05-11T14:20:43.083Z,80.04
2019-05-11T14:21:43.116Z,79.47
2019-05-11T14:22:47.796Z,80.73
2019-05-11T14:23:43.196Z,77.11
2019-05-11T14:24:43.235Z,70.32
2019-05-11T14:25:43.274Z,66.94
2019-05-11T14:26:43.313Z,64.50
2019-05-11T14:27:43.354Z,63.12
2019-05-11T14:28:43.393Z,64.43
2019-05-11T14:29:43.433Z,71.08
2019-05-11T14:30:43.473Z,73.63
2019-05-11T14:31:43.513Z,74.69
2019-05-11T14:32:43.554Z,74.43
2019-05-11T14:33:43.593Z,75.82
2019-05-11T14:34:43.632Z,78.57
2019-05-11T14:35:43.671Z,80.11
2019-05-11T14:36:43.712Z,79.63
2019-05-11T14:37:43.749Z,80.20
2019-05-11T14:38:43.791Z,79.82
2019-05-11T14:39:43.827Z,80.64
2019-05-11T14:40:43.866Z,79.59
2019-05-11T14:41:43.903Z,78.63
2019-05-11T14:42:43.941Z,80.16
2019-05-11T14:43:43.980Z,79.30
2019-05-11T14:44:44.020Z,78.02
2019-05-11T14:45:44.054Z,79.41
2019-05-11T14:46:44.091Z,78.84
2019-05-11T14:47:44.129Z,78.55
2019-05-11T14:48:44.166Z,79.22
2019-05-11T14:49:44.200Z,79.28
2019-05-11T14:50:44.238Z,79.57
2019-05-11T14:51:44.274Z,79.47
2019-05-11T14:52:44.311Z,79.37
2019-05-11T14:53:44.345Z,79.18
2019-05-11T14:55:44.417Z,79.91
2019-05-11T14:56:44.785Z,80.00
2019-05-11T14:57:44.487Z,80.96
2019-05-11T14:58:44.525Z,82.01
2019-05-11T14:59:44.581Z,83.45
2019-05-11T15:03:28.707Z,83.89
2019-05-11T15:04:28.690Z,84.27
2019-05-11T15:05:31.115Z,85.89
2019-05-11T15:06:31.356Z,86.47
2019-05-11T15:07:28.314Z,85.99
2019-05-11T15:08:28.646Z,85.32
2019-05-11T15:09:28.605Z,85.80
2019-05-11T15:10:27.876Z,86.47
2019-05-11T15:11:28.074Z,87.23
2019-05-11T15:12:28.717Z,89.05
2019-05-11T15:13:28.777Z,88.48
2019-05-11T15:14:28.860Z,87.86
2019-05-11T15:15:28.044Z,87.86
2019-05-11T15:16:27.937Z,88.72
2019-05-11T15:17:28.275Z,90.73
2019-05-11T15:18:37.906Z,91.93
2019-05-11T15:19:27.987Z,92.40
2019-05-11T15:20:28.716Z,93.93
2019-05-11T15:21:28.136Z,92.69
2019-05-11T15:22:28.687Z,93.07
2019-05-11T15:23:28.508Z,92.59
2019-05-11T15:24:28.765Z,92.30
2019-05-11T15:26:27.980Z,92.50
2019-05-11T15:27:28.911Z,92.97
2019-05-11T15:28:28.559Z,96.13
2019-05-11T15:29:28.784Z,97.08
2019-05-11T15:30:28.830Z,96.32
2019-05-11T15:31:28.145Z,96.51
2019-05-11T15:32:28.603Z,97.66
2019-05-11T15:33:28.208Z,97.75
2019-05-11T15:34:28.834Z,97.85
2019-05-11T15:35:28.656Z,97.85
2019-05-11T15:36:28.659Z,97.66
2019-05-11T15:37:28.556Z,99.48
2019-05-11T15:38:28.581Z,97.75
2019-05-11T15:39:28.922Z,96.03
2019-05-11T15:40:28.435Z,98.13
2019-05-11T15:41:28.468Z,98.90
2019-05-11T15:42:28.906Z,98.71
2019-05-11T15:43:28.556Z,99.52
2019-05-11T15:44:28.834Z,99.99
2019-05-11T15:45:29.535Z,99.71
2019-05-11T15:46:29.057Z,99.62
2019-05-11T15:47:30.629Z,98.18
2019-05-11T15:48:28.695Z,97.47
2019-05-11T15:49:28.726Z,97.42
2019-05-11T15:50:29.253Z,98.38
2019-05-11T15:51:29.233Z,98.85
2019-05-11T15:52:28.824Z,99.71
2019-05-11T15:53:28.858Z,99.99
2019-05-11T15:54:28.994Z,99.99
2019-05-11T15:55:28.920Z,99.99
2019-05-11T15:56:28.952Z,99.99
2019-05-11T15:57:28.985Z,99.99
2019-05-11T15:58:29.260Z,99.99
2019-05-11T15:59:30.512Z,99.99
2019-05-11T16:00:29.085Z,99.99
2019-05-11T16:01:29.114Z,99.99
2019-05-11T16:02:29.146Z,99.99
2019-05-11T16:21:53.342Z,99.99
2019-05-11T16:23:49.975Z,99.99
2019-05-11T16:24:50.009Z,99.99
2019-05-11T16:25:50.270Z,99.99
2019-05-11T16:27:50.331Z,99.99
2019-05-11T16:28:50.966Z,99.99
2019-05-11T16:29:50.188Z,99.99
2019-05-11T16:30:50.220Z,99.99
2019-05-11T16:31:50.258Z,99.99
2019-05-11T16:32:50.488Z,99.99
2019-05-11T16:36:50.408Z,99.99
2019-05-11T16:37:54.253Z,99.99
2019-05-11T16:38:50.679Z,99.99
2019-05-11T16:41:50.571Z,99.99
2019-05-11T16:42:51.207Z,99.99
2019-05-11T16:43:51.821Z,99.99
2019-05-11T16:44:51.066Z,99.99
2019-05-11T16:46:51.122Z,99.99
2019-05-11T16:47:50.956Z,99.99
2019-05-11T16:48:53.586Z,99.99
2019-05-11T16:49:51.021Z,99.99
2019-05-11T16:51:50.856Z,99.99
2019-05-11T16:52:51.116Z,99.99
2019-05-11T16:53:51.449Z,99.99
2019-05-11T16:54:50.974Z,99.99
2019-05-11T16:55:51.004Z,99.99
2019-05-11T16:56:51.746Z,99.99
2019-05-11T17:05:53.656Z,99.99
2019-05-11T17:06:53.685Z,99.99
2019-05-11T17:07:53.716Z,99.99
2019-05-11T17:08:53.746Z,99.99
2019-05-11T17:09:53.774Z,99.99
2019-05-11T17:10:53.804Z,99.99
2019-05-11T17:11:53.836Z,99.99
2019-05-11T17:12:53.865Z,99.99
2019-05-11T17:13:53.893Z,99.99
2019-05-11T17:14:53.922Z,99.99
2019-05-11T17:15:53.952Z,99.99
2019-05-11T17:16:53.987Z,99.99
2019-05-11T17:17:54.011Z,99.99
2019-05-11T17:18:54.041Z,99.99
2019-05-11T17:19:54.071Z,99.99
2019-05-11T17:20:54.099Z,99.99
2019-05-11T17:21:54.128Z,99.99
2019-05-11T17:22:54.180Z,99.99
2019-05-11T17:23:54.189Z,99.99
2019-05-11T17:24:54.224Z,99.99
2019-05-11T17:25:54.246Z,99.99
2019-05-11T17:26:54.275Z,99.99
2019-05-11T17:27:54.306Z,99.99
2019-05-11T17:28:54.335Z,99.99
2019-05-11T17:29:54.363Z,99.99
2019-05-11T17:30:54.393Z,99.99
2019-05-11T17:31:54.422Z,99.99
2019-05-11T17:32:54.452Z,99.99
2019-05-11T17:33:54.481Z,99.99
2019-05-11T17:34:54.510Z,99.99
2019-05-11T17:35:54.539Z,99.99
2019-05-11T17:36:57.142Z,99.99
2019-05-11T17:37:54.597Z,99.99
2019-05-11T17:38:54.626Z,99.99
2019-05-11T17:39:54.656Z,99.99
2019-05-11T17:40:54.687Z,99.99
2019-05-11T17:41:54.715Z,99.99
2019-05-11T17:42:54.743Z,99.99
2019-05-11T17:43:54.772Z,99.99
2019-05-11T17:44:54.802Z,99.99
2019-05-11T17:45:54.830Z,99.99
2019-05-11T17:46:54.859Z,99.99
2019-05-11T17:47:54.888Z,99.99
2019-05-11T17:48:54.919Z,99.99
2019-05-11T17:49:59.510Z,99.99
2019-05-11T17:50:54.976Z,99.99
2019-05-11T17:51:55.006Z,99.99
2019-05-11T17:52:55.034Z,99.99
2019-05-11T17:53:55.062Z,99.99
2019-05-11T17:54:55.237Z,99.99
2019-05-11T17:55:57.792Z,99.99
2019-05-11T17:56:57.686Z,99.99
2019-05-11T17:57:55.212Z,99.99
2019-05-11T17:58:55.209Z,99.99
2019-05-11T17:59:55.240Z,99.99
2019-05-11T18:00:55.268Z,99.99
2019-05-11T18:01:55.295Z,99.99
2019-05-11T18:02:55.324Z,99.99
2019-05-11T18:03:55.354Z,99.99
2019-05-11T18:04:58.288Z,99.99
2019-05-11T18:05:55.414Z,99.99
2019-05-11T18:06:55.441Z,99.99
2019-05-11T18:07:55.470Z,99.99
2019-05-11T18:08:55.499Z,99.99
2019-05-11T18:09:55.528Z,99.99
2019-05-11T18:10:55.558Z,99.99
2019-05-11T18:11:55.586Z,99.99
2019-05-11T18:12:57.715Z,99.99
2019-05-11T18:13:55.643Z,99.99
2019-05-11T18:14:55.674Z,99.99
2019-05-11T18:15:57.801Z,99.99
2019-05-11T18:16:55.732Z,99.99
2019-05-11T18:17:58.576Z,99.99
2019-05-11T18:18:55.812Z,99.99
2019-05-11T18:19:58.064Z,99.99
2019-05-11T18:20:57.913Z,99.99
2019-05-11T18:21:57.738Z,99.99
2019-05-11T18:22:57.745Z,99.99
2019-05-11T18:23:55.935Z,99.99
2019-05-11T18:24:57.993Z,99.99
2019-05-11T18:25:55.992Z,99.99
2019-05-11T18:26:56.020Z,99.99
2019-05-11T18:27:58.105Z,99.99
2019-05-11T18:28:58.508Z,99.99
2019-05-11T18:29:58.061Z,99.99
2019-05-11T18:30:58.069Z,99.99
2019-05-11T18:31:57.935Z,99.99
2019-05-11T18:32:59.211Z,99.99
2019-05-11T18:33:58.083Z,99.99
2019-05-11T18:34:58.812Z,99.99
2019-05-11T18:35:58.304Z,99.99
2019-05-11T18:36:57.863Z,99.99
2019-05-11T18:37:56.613Z,99.99
2019-05-11T18:38:56.367Z,99.99
2019-05-11T18:39:58.451Z,99.99
2019-05-11T18:40:58.021Z,99.99
2019-05-11T18:41:58.715Z,99.99
2019-05-11T18:42:57.848Z,99.99
2019-05-11T18:43:58.577Z,99.99